sensor_id;sensor_type;location;lat;lon;timestamp;pressure;altitude;pressure_sealevel;temperature;humidity
55113;BME280;41006;50.920;3.456;2023-07-20T00:00:02;76029.78;;;-147.36;100.00
55113;BME280;41006;50.920;3.456;2023-07-20T00:00:32;76029.78;;;-147.36;100.00
55113;BME280;41006;50.920;3.456;2023-07-20T00:01:03;76027.75;;;-147.36;100.00
55113;BME280;41006;50.920;3.456;2023-07-20T00:01:33;76035.84;;;-147.36;100.00
55113;BME280;41006;50.920;3.456;2023-07-20T00:02:05;76035.84;;;-147.36;100.00
55113;BME280;41006;50.920;3.456;2023-07-20T00:02:38;76035.84;;;-147.36;100.00
55113;BME280;41006;50.920;3.456;2023-07-20T00:03:12;76039.88;;;-147.36;100.00
55113;BME280;41006;50.920;3.456;2023-07-20T00:03:46;76043.91;;;-147.36;100.00
55113;BME280;41006;50.920;3.456;2023-07-20T00:04:26;76037.84;;;-147.36;100.00
55113;BME280;41006;50.920;3.456;2023-07-20T00:04:57;76039.88;;;-147.36;100.00
55113;BME280;41006;50.920;3.456;2023-07-20T00:05:30;76039.88;;;-147.36;100.00
55113;BME280;41006;50.920;3.456;2023-07-20T00:06:02;76031.78;;;-147.36;100.00
55113;BME280;41006;50.920;3.456;2023-07-20T00:06:34;76035.84;;;-147.36;100.00
55113;BME280;41006;50.920;3.456;2023-07-20T00:07:07;76041.91;;;-147.36;100.00
55113;BME280;41006;50.920;3.456;2023-07-20T00:07:37;76039.88;;;-147.36;100.00
55113;BME280;41006;50.920;3.456;2023-07-20T00:08:07;76039.88;;;-147.36;100.00
55113;BME280;41006;50.920;3.456;2023-07-20T00:08:40;76041.91;;;-147.36;100.00
55113;BME280;41006;50.920;3.456;2023-07-20T00:09:12;76039.88;;;-147.36;100.00
55113;BME280;41006;50.920;3.456;2023-07-20T00:09:45;76056.03;;;-147.36;100.00
55113;BME280;41006;50.920;3.456;2023-07-20T00:10:15;76052.00;;;-147.36;100.00
55113;BME280;41006;50.920;3.456;2023-07-20T00:10:48;76039.88;;;-147.36;100.00
55113;BME280;41006;50.920;3.456;2023-07-20T00:11:19;76037.84;;;-147.36;100.00
55113;BME280;41006;50.920;3.456;2023-07-20T00:11:52;76047.97;;;-147.36;100.00
55113;BME280;41006;50.920;3.456;2023-07-20T00:12:26;76052.00;;;-147.36;100.00
55113;BME280;41006;50.920;3.456;2023-07-20T00:12:56;76056.03;;;-147.36;100.00
55113;BME280;41006;50.920;3.456;2023-07-20T00:13:32;76060.06;;;-147.36;100.00
55113;BME280;41006;50.920;3.456;2023-07-20T00:14:05;76047.97;;;-147.36;100.00
55113;BME280;41006;50.920;3.456;2023-07-20T00:14:40;76060.06;;;-147.36;100.00
55113;BME280;41006;50.920;3.456;2023-07-20T00:15:11;76060.06;;;-147.36;100.00
55113;BME280;41006;50.920;3.456;2023-07-20T00:15:43;76058.06;;;-147.36;100.00
55113;BME280;41006;50.920;3.456;2023-07-20T00:16:13;76056.03;;;-147.36;100.00
55113;BME280;41006;50.920;3.456;2023-07-20T00:16:50;76058.06;;;-147.36;100.00
55113;BME280;41006;50.920;3.456;2023-07-20T00:17:25;76060.06;;;-147.36;100.00
55113;BME280;41006;50.920;3.456;2023-07-20T00:17:58;76068.16;;;-147.36;100.00
55113;BME280;41006;50.920;3.456;2023-07-20T00:18:31;76066.13;;;-147.36;100.00
55113;BME280;41006;50.920;3.456;2023-07-20T00:19:01;76068.16;;;-147.36;100.00
55113;BME280;41006;50.920;3.456;2023-07-20T00:19:32;76076.25;;;-147.36;100.00
55113;BME280;41006;50.920;3.456;2023-07-20T00:20:06;76070.19;;;-147.36;100.00
55113;BME280;41006;50.920;3.456;2023-07-20T00:20:39;76076.25;;;-147.36;100.00
55113;BME280;41006;50.920;3.456;2023-07-20T00:21:11;76078.25;;;-147.36;100.00
55113;BME280;41006;50.920;3.456;2023-07-20T00:21:42;76066.13;;;-147.36;100.00
55113;BME280;41006;50.920;3.456;2023-07-20T00:22:15;76068.16;;;-147.36;100.00
55113;BME280;41006;50.920;3.456;2023-07-20T00:22:45;76060.06;;;-147.36;100.00
55113;BME280;41006;50.920;3.456;2023-07-20T00:23:15;76058.06;;;-147.36;100.00
55113;BME280;41006;50.920;3.456;2023-07-20T00:23:50;76064.13;;;-147.36;100.00
55113;BME280;41006;50.920;3.456;2023-07-20T00:24:23;76064.13;;;-147.36;100.00
55113;BME280;41006;50.920;3.456;2023-07-20T00:24:56;76080.28;;;-147.36;100.00
55113;BME280;41006;50.920;3.456;2023-07-20T00:25:29;76084.31;;;-147.36;100.00
55113;BME280;41006;50.920;3.456;2023-07-20T00:26:02;76082.31;;;-147.36;100.00
55113;BME280;41006;50.920;3.456;2023-07-20T00:26:32;76076.25;;;-147.36;100.00
55113;BME280;41006;50.920;3.456;2023-07-20T00:27:03;76080.28;;;-147.36;100.00
55113;BME280;41006;50.920;3.456;2023-07-20T00:27:37;76084.31;;;-147.36;100.00
55113;BME280;41006;50.920;3.456;2023-07-20T00:28:07;76080.28;;;-147.36;100.00
55113;BME280;41006;50.920;3.456;2023-07-20T00:28:40;76084.31;;;-147.36;100.00
55113;BME280;41006;50.920;3.456;2023-07-20T00:29:13;76088.34;;;-147.36;100.00
55113;BME280;41006;50.920;3.456;2023-07-20T00:29:46;76088.34;;;-147.36;100.00
55113;BME280;41006;50.920;3.456;2023-07-20T00:30:16;76084.31;;;-147.36;100.00
55113;BME280;41006;50.920;3.456;2023-07-20T00:30:47;76096.44;;;-147.36;100.00
55113;BME280;41006;50.920;3.456;2023-07-20T00:31:17;76094.41;;;-147.36;100.00
55113;BME280;41006;50.920;3.456;2023-07-20T00:31:50;76092.41;;;-147.36;100.00
55113;BME280;41006;50.920;3.456;2023-07-20T00:32:21;76092.41;;;-147.36;100.00
55113;BME280;41006;50.920;3.456;2023-07-20T00:32:51;76084.31;;;-147.36;100.00
55113;BME280;41006;50.920;3.456;2023-07-20T00:33:21;76076.25;;;-147.36;100.00
55113;BME280;41006;50.920;3.456;2023-07-20T00:33:56;76070.19;;;-147.36;100.00
55113;BME280;41006;50.920;3.456;2023-07-20T00:34:27;76068.16;;;-147.36;100.00
55113;BME280;41006;50.920;3.456;2023-07-20T00:35:00;76070.19;;;-147.36;100.00
55113;BME280;41006;50.920;3.456;2023-07-20T00:35:30;76076.25;;;-147.36;100.00
55113;BME280;41006;50.920;3.456;2023-07-20T00:36:03;76078.25;;;-147.36;100.00
55113;BME280;41006;50.920;3.456;2023-07-20T00:36:34;76070.19;;;-147.36;100.00
55113;BME280;41006;50.920;3.456;2023-07-20T00:37:04;76088.34;;;-147.36;100.00
55113;BME280;41006;50.920;3.456;2023-07-20T00:37:39;76082.31;;;-147.36;100.00
55113;BME280;41006;50.920;3.456;2023-07-20T00:38:12;76096.44;;;-147.36;100.00
55113;BME280;41006;50.920;3.456;2023-07-20T00:38:42;76096.44;;;-147.36;100.00
55113;BME280;41006;50.920;3.456;2023-07-20T00:39:12;76088.34;;;-147.36;100.00
55113;BME280;41006;50.920;3.456;2023-07-20T00:39:45;76100.47;;;-147.36;100.00
55113;BME280;41006;50.920;3.456;2023-07-20T00:40:16;76100.47;;;-147.36;100.00
55113;BME280;41006;50.920;3.456;2023-07-20T00:40:48;76096.44;;;-147.36;100.00
55113;BME280;41006;50.920;3.456;2023-07-20T00:41:19;76088.34;;;-147.36;100.00
55113;BME280;41006;50.920;3.456;2023-07-20T00:41:50;76092.41;;;-147.36;100.00
55113;BME280;41006;50.920;3.456;2023-07-20T00:42:20;76092.41;;;-147.36;100.00
55113;BME280;41006;50.920;3.456;2023-07-20T00:42:53;76096.44;;;-147.36;100.00
55113;BME280;41006;50.920;3.456;2023-07-20T00:43:28;76104.53;;;-147.36;100.00
55113;BME280;41006;50.920;3.456;2023-07-20T00:44:00;76106.53;;;-147.36;100.00
55113;BME280;41006;50.920;3.456;2023-07-20T00:44:31;76096.44;;;-147.36;100.00
55113;BME280;41006;50.920;3.456;2023-07-20T00:45:04;76088.34;;;-147.36;100.00
55113;BME280;41006;50.920;3.456;2023-07-20T00:45:36;76092.41;;;-147.36;100.00
55113;BME280;41006;50.920;3.456;2023-07-20T00:46:12;76096.44;;;-147.36;100.00
55113;BME280;41006;50.920;3.456;2023-07-20T00:46:46;76090.38;;;-147.36;100.00
55113;BME280;41006;50.920;3.456;2023-07-20T00:47:19;76096.44;;;-147.36;100.00
55113;BME280;41006;50.920;3.456;2023-07-20T00:47:49;76102.50;;;-147.36;100.00
55113;BME280;41006;50.920;3.456;2023-07-20T00:48:22;76104.53;;;-147.36;100.00
55113;BME280;41006;50.920;3.456;2023-07-20T00:48:55;76104.53;;;-147.36;100.00
55113;BME280;41006;50.920;3.456;2023-07-20T00:49:31;76098.47;;;-147.36;100.00
55113;BME280;41006;50.920;3.456;2023-07-20T00:50:05;76096.44;;;-147.36;100.00
55113;BME280;41006;50.920;3.456;2023-07-20T00:50:36;76096.44;;;-147.36;100.00
55113;BME280;41006;50.920;3.456;2023-07-20T00:51:07;76100.47;;;-147.36;100.00
55113;BME280;41006;50.920;3.456;2023-07-20T00:51:37;76094.41;;;-147.36;100.00
55113;BME280;41006;50.920;3.456;2023-07-20T00:52:14;76090.38;;;-147.36;100.00
55113;BME280;41006;50.920;3.456;2023-07-20T00:52:45;76096.44;;;-147.36;100.00
55113;BME280;41006;50.920;3.456;2023-07-20T00:53:19;76104.53;;;-147.36;100.00
55113;BME280;41006;50.920;3.456;2023-07-20T00:53:50;76106.53;;;-147.36;100.00
55113;BME280;41006;50.920;3.456;2023-07-20T00:54:23;76108.56;;;-147.36;100.00
55113;BME280;41006;50.920;3.456;2023-07-20T00:54:53;76104.53;;;-147.36;100.00
55113;BME280;41006;50.920;3.456;2023-07-20T00:55:26;76106.53;;;-147.36;100.00
55113;BME280;41006;50.920;3.456;2023-07-20T00:55:58;76104.53;;;-147.36;100.00
55113;BME280;41006;50.920;3.456;2023-07-20T00:56:31;76104.53;;;-147.36;100.00
55113;BME280;41006;50.920;3.456;2023-07-20T00:57:02;76098.47;;;-147.36;100.00
55113;BME280;41006;50.920;3.456;2023-07-20T00:57:34;76104.53;;;-147.36;100.00
55113;BME280;41006;50.920;3.456;2023-07-20T00:58:07;76106.53;;;-147.36;100.00
55113;BME280;41006;50.920;3.456;2023-07-20T00:58:38;76106.53;;;-147.36;100.00
55113;BME280;41006;50.920;3.456;2023-07-20T00:59:09;76106.53;;;-147.36;100.00
55113;BME280;41006;50.920;3.456;2023-07-20T00:59:44;76108.56;;;-147.36;100.00
55113;BME280;41006;50.920;3.456;2023-07-20T01:00:17;76108.56;;;-147.36;100.00
55113;BME280;41006;50.920;3.456;2023-07-20T01:00:50;76106.53;;;-147.36;100.00
55113;BME280;41006;50.920;3.456;2023-07-20T01:01:22;76104.53;;;-147.36;100.00
55113;BME280;41006;50.920;3.456;2023-07-20T01:01:52;76102.50;;;-147.36;100.00
55113;BME280;41006;50.920;3.456;2023-07-20T01:02:22;76092.41;;;-147.36;100.00
55113;BME280;41006;50.920;3.456;2023-07-20T01:02:55;76084.31;;;-147.36;100.00
55113;BME280;41006;50.920;3.456;2023-07-20T01:03:26;76092.41;;;-147.36;100.00
55113;BME280;41006;50.920;3.456;2023-07-20T01:03:56;76094.41;;;-147.36;100.00
55113;BME280;41006;50.920;3.456;2023-07-20T01:04:29;76090.38;;;-147.36;100.00
55113;BME280;41006;50.920;3.456;2023-07-20T01:05:00;76092.41;;;-147.36;100.00
55113;BME280;41006;50.920;3.456;2023-07-20T01:05:56;76078.25;;;-147.36;100.00
55113;BME280;41006;50.920;3.456;2023-07-20T01:06:38;76076.25;;;-147.36;100.00
55113;BME280;41006;50.920;3.456;2023-07-20T01:07:25;76074.22;;;-147.36;100.00
55113;BME280;41006;50.920;3.456;2023-07-20T01:08:09;76072.19;;;-147.36;100.00
55113;BME280;41006;50.920;3.456;2023-07-20T01:08:51;76062.09;;;-147.36;100.00
55113;BME280;41006;50.920;3.456;2023-07-20T01:09:42;76076.25;;;-147.36;100.00
55113;BME280;41006;50.920;3.456;2023-07-20T01:10:38;76076.25;;;-147.36;100.00
55113;BME280;41006;50.920;3.456;2023-07-20T01:12:27;76084.31;;;-147.36;100.00
55113;BME280;41006;50.920;3.456;2023-07-20T01:13:01;76076.25;;;-147.36;100.00
55113;BME280;41006;50.920;3.456;2023-07-20T01:13:32;76084.31;;;-147.36;100.00
55113;BME280;41006;50.920;3.456;2023-07-20T01:14:05;76092.41;;;-147.36;100.00
55113;BME280;41006;50.920;3.456;2023-07-20T01:14:39;76088.34;;;-147.36;100.00
55113;BME280;41006;50.920;3.456;2023-07-20T01:15:12;76092.41;;;-147.36;100.00
55113;BME280;41006;50.920;3.456;2023-07-20T01:15:49;76096.44;;;-147.36;100.00
55113;BME280;41006;50.920;3.456;2023-07-20T01:16:20;76086.34;;;-147.36;100.00
55113;BME280;41006;50.920;3.456;2023-07-20T01:16:53;76096.44;;;-147.36;100.00
55113;BME280;41006;50.920;3.456;2023-07-20T01:17:25;76096.44;;;-147.36;100.00
55113;BME280;41006;50.920;3.456;2023-07-20T01:17:56;76092.41;;;-147.36;100.00
55113;BME280;41006;50.920;3.456;2023-07-20T01:18:33;76098.47;;;-147.36;100.00
55113;BME280;41006;50.920;3.456;2023-07-20T01:19:04;76092.41;;;-147.36;100.00
55113;BME280;41006;50.920;3.456;2023-07-20T01:19:39;76088.34;;;-147.36;100.00
55113;BME280;41006;50.920;3.456;2023-07-20T01:20:14;76090.38;;;-147.36;100.00
55113;BME280;41006;50.920;3.456;2023-07-20T01:20:47;76070.19;;;-147.36;100.00
55113;BME280;41006;50.920;3.456;2023-07-20T01:21:50;76084.31;;;-147.36;100.00
55113;BME280;41006;50.920;3.456;2023-07-20T01:25:06;76076.25;;;-147.36;100.00
55113;BME280;41006;50.920;3.456;2023-07-20T01:30:52;76122.72;;;-147.36;100.00
55113;BME280;41006;50.920;3.456;2023-07-20T01:31:28;76122.72;;;-147.36;100.00
55113;BME280;41006;50.920;3.456;2023-07-20T01:32:06;76120.69;;;-147.36;100.00
55113;BME280;41006;50.920;3.456;2023-07-20T01:32:39;76128.75;;;-147.36;100.00
55113;BME280;41006;50.920;3.456;2023-07-20T01:33:13;76126.75;;;-147.36;100.00
55113;BME280;41006;50.920;3.456;2023-07-20T01:33:47;76126.75;;;-147.36;100.00
55113;BME280;41006;50.920;3.456;2023-07-20T01:34:19;76124.72;;;-147.36;100.00
55113;BME280;41006;50.920;3.456;2023-07-20T01:34:56;76124.72;;;-147.36;100.00
55113;BME280;41006;50.920;3.456;2023-07-20T01:35:30;76128.75;;;-147.36;100.00
55113;BME280;41006;50.920;3.456;2023-07-20T01:36:01;76130.78;;;-147.36;100.00
55113;BME280;41006;50.920;3.456;2023-07-20T01:36:36;76130.78;;;-147.36;100.00
55113;BME280;41006;50.920;3.456;2023-07-20T01:37:08;76126.75;;;-147.36;100.00
55113;BME280;41006;50.920;3.456;2023-07-20T01:37:43;76128.75;;;-147.36;100.00
55113;BME280;41006;50.920;3.456;2023-07-20T01:38:17;76120.69;;;-147.36;100.00
55113;BME280;41006;50.920;3.456;2023-07-20T01:38:52;76116.66;;;-147.36;100.00
55113;BME280;41006;50.920;3.456;2023-07-20T01:39:23;76116.66;;;-147.36;100.00
55113;BME280;41006;50.920;3.456;2023-07-20T01:39:54;76122.72;;;-147.36;100.00
55113;BME280;41006;50.920;3.456;2023-07-20T01:40:28;76124.72;;;-147.36;100.00
55113;BME280;41006;50.920;3.456;2023-07-20T01:40:58;76134.81;;;-147.36;100.00
55113;BME280;41006;50.920;3.456;2023-07-20T01:41:31;76132.81;;;-147.36;100.00
55113;BME280;41006;50.920;3.456;2023-07-20T01:42:05;76130.78;;;-147.36;100.00
55113;BME280;41006;50.920;3.456;2023-07-20T01:42:36;76116.66;;;-147.36;100.00
55113;BME280;41006;50.920;3.456;2023-07-20T01:43:10;76106.53;;;-147.36;100.00
55113;BME280;41006;50.920;3.456;2023-07-20T01:43:44;76108.56;;;-147.36;100.00
55113;BME280;41006;50.920;3.456;2023-07-20T01:44:17;76106.53;;;-147.36;100.00
55113;BME280;41006;50.920;3.456;2023-07-20T01:44:50;76112.59;;;-147.36;100.00
55113;BME280;41006;50.920;3.456;2023-07-20T01:45:26;76104.53;;;-147.36;100.00
55113;BME280;41006;50.920;3.456;2023-07-20T01:45:57;76106.53;;;-147.36;100.00
55113;BME280;41006;50.920;3.456;2023-07-20T01:46:30;76116.66;;;-147.36;100.00
55113;BME280;41006;50.920;3.456;2023-07-20T01:47:03;76116.66;;;-147.36;100.00
55113;BME280;41006;50.920;3.456;2023-07-20T01:47:34;76120.69;;;-147.36;100.00
55113;BME280;41006;50.920;3.456;2023-07-20T01:48:06;76126.75;;;-147.36;100.00
55113;BME280;41006;50.920;3.456;2023-07-20T01:48:37;76132.81;;;-147.36;100.00
55113;BME280;41006;50.920;3.456;2023-07-20T01:49:08;76132.81;;;-147.36;100.00
55113;BME280;41006;50.920;3.456;2023-07-20T01:49:41;76136.84;;;-147.36;100.00
55113;BME280;41006;50.920;3.456;2023-07-20T01:50:16;76130.78;;;-147.36;100.00
55113;BME280;41006;50.920;3.456;2023-07-20T01:50:47;76136.84;;;-147.36;100.00
55113;BME280;41006;50.920;3.456;2023-07-20T01:51:20;76136.84;;;-147.36;100.00
55113;BME280;41006;50.920;3.456;2023-07-20T01:51:50;76136.84;;;-147.36;100.00
55113;BME280;41006;50.920;3.456;2023-07-20T01:52:23;76144.94;;;-147.36;100.00
55113;BME280;41006;50.920;3.456;2023-07-20T01:52:56;76144.94;;;-147.36;100.00
55113;BME280;41006;50.920;3.456;2023-07-20T01:53:29;76151.00;;;-147.36;100.00
55113;BME280;41006;50.920;3.456;2023-07-20T01:53:59;76144.94;;;-147.36;100.00
55113;BME280;41006;50.920;3.456;2023-07-20T01:54:34;76140.88;;;-147.36;100.00
55113;BME280;41006;50.920;3.456;2023-07-20T01:55:10;76128.75;;;-147.36;100.00
55113;BME280;41006;50.920;3.456;2023-07-20T01:55:43;76128.75;;;-147.36;100.00
55113;BME280;41006;50.920;3.456;2023-07-20T01:56:16;76136.84;;;-147.36;100.00
55113;BME280;41006;50.920;3.456;2023-07-20T01:56:49;76136.84;;;-147.36;100.00
55113;BME280;41006;50.920;3.456;2023-07-20T01:57:19;76136.84;;;-147.36;100.00
55113;BME280;41006;50.920;3.456;2023-07-20T01:57:54;76140.88;;;-147.36;100.00
55113;BME280;41006;50.920;3.456;2023-07-20T01:58:27;76142.91;;;-147.36;100.00
55113;BME280;41006;50.920;3.456;2023-07-20T01:58:57;76148.97;;;-147.36;100.00
55113;BME280;41006;50.920;3.456;2023-07-20T01:59:28;76151.00;;;-147.36;100.00
55113;BME280;41006;50.920;3.456;2023-07-20T02:00:01;76151.00;;;-147.36;100.00
55113;BME280;41006;50.920;3.456;2023-07-20T02:00:33;76157.06;;;-147.36;100.00
55113;BME280;41006;50.920;3.456;2023-07-20T02:01:06;76157.06;;;-147.36;100.00
55113;BME280;41006;50.920;3.456;2023-07-20T02:01:39;76161.09;;;-147.36;100.00
55113;BME280;41006;50.920;3.456;2023-07-20T02:02:11;76165.13;;;-147.36;100.00
55113;BME280;41006;50.920;3.456;2023-07-20T02:02:44;76163.13;;;-147.36;100.00
55113;BME280;41006;50.920;3.456;2023-07-20T02:03:17;76163.13;;;-147.36;100.00
55113;BME280;41006;50.920;3.456;2023-07-20T02:03:49;76165.13;;;-147.36;100.00
55113;BME280;41006;50.920;3.456;2023-07-20T02:04:22;76167.16;;;-147.36;100.00
55113;BME280;41006;50.920;3.456;2023-07-20T02:04:53;76161.09;;;-147.36;100.00
55113;BME280;41006;50.920;3.456;2023-07-20T02:05:25;76171.19;;;-147.36;100.00
55113;BME280;41006;50.920;3.456;2023-07-20T02:06:03;76171.19;;;-147.36;100.00
55113;BME280;41006;50.920;3.456;2023-07-20T02:06:33;76169.16;;;-147.36;100.00
55113;BME280;41006;50.920;3.456;2023-07-20T02:07:04;76165.13;;;-147.36;100.00
55113;BME280;41006;50.920;3.456;2023-07-20T02:07:34;76161.09;;;-147.36;100.00
55113;BME280;41006;50.920;3.456;2023-07-20T02:08:04;76161.09;;;-147.36;100.00
55113;BME280;41006;50.920;3.456;2023-07-20T02:08:37;76161.09;;;-147.36;100.00
55113;BME280;41006;50.920;3.456;2023-07-20T02:09:08;76169.16;;;-147.36;100.00
55113;BME280;41006;50.920;3.456;2023-07-20T02:09:38;76161.09;;;-147.36;100.00
55113;BME280;41006;50.920;3.456;2023-07-20T02:10:11;76153.00;;;-147.36;100.00
55113;BME280;41006;50.920;3.456;2023-07-20T02:10:45;76157.06;;;-147.36;100.00
55113;BME280;41006;50.920;3.456;2023-07-20T02:11:20;76148.97;;;-147.36;100.00
55113;BME280;41006;50.920;3.456;2023-07-20T02:11:50;76146.94;;;-147.36;100.00
55113;BME280;41006;50.920;3.456;2023-07-20T02:12:21;76144.94;;;-147.36;100.00
55113;BME280;41006;50.920;3.456;2023-07-20T02:12:51;76132.81;;;-147.36;100.00
55113;BME280;41006;50.920;3.456;2023-07-20T02:13:24;76136.84;;;-147.36;100.00
55113;BME280;41006;50.920;3.456;2023-07-20T02:13:54;76142.91;;;-147.36;100.00
55113;BME280;41006;50.920;3.456;2023-07-20T02:14:25;76142.91;;;-147.36;100.00
55113;BME280;41006;50.920;3.456;2023-07-20T02:14:56;76148.97;;;-147.36;100.00
55113;BME280;41006;50.920;3.456;2023-07-20T02:15:29;76153.00;;;-147.36;100.00
55113;BME280;41006;50.920;3.456;2023-07-20T02:15:59;76138.88;;;-147.36;100.00
55113;BME280;41006;50.920;3.456;2023-07-20T02:16:30;76132.81;;;-147.36;100.00
55113;BME280;41006;50.920;3.456;2023-07-20T02:17:02;76140.88;;;-147.36;100.00
55113;BME280;41006;50.920;3.456;2023-07-20T02:17:33;76144.94;;;-147.36;100.00
55113;BME280;41006;50.920;3.456;2023-07-20T02:18:03;76144.94;;;-147.36;100.00
55113;BME280;41006;50.920;3.456;2023-07-20T02:18:36;76142.91;;;-147.36;100.00
55113;BME280;41006;50.920;3.456;2023-07-20T02:19:12;76144.94;;;-147.36;100.00
55113;BME280;41006;50.920;3.456;2023-07-20T02:19:46;76140.88;;;-147.36;100.00
55113;BME280;41006;50.920;3.456;2023-07-20T02:20:20;76136.84;;;-147.36;100.00
55113;BME280;41006;50.920;3.456;2023-07-20T02:20:53;76128.75;;;-147.36;100.00
55113;BME280;41006;50.920;3.456;2023-07-20T02:21:26;76132.81;;;-147.36;100.00
55113;BME280;41006;50.920;3.456;2023-07-20T02:21:57;76132.81;;;-147.36;100.00
55113;BME280;41006;50.920;3.456;2023-07-20T02:22:28;76122.72;;;-147.36;100.00
55113;BME280;41006;50.920;3.456;2023-07-20T02:22:58;76124.72;;;-147.36;100.00
55113;BME280;41006;50.920;3.456;2023-07-20T02:23:31;76136.84;;;-147.36;100.00
55113;BME280;41006;50.920;3.456;2023-07-20T02:24:02;76136.84;;;-147.36;100.00
55113;BME280;41006;50.920;3.456;2023-07-20T02:24:34;76140.88;;;-147.36;100.00
55113;BME280;41006;50.920;3.456;2023-07-20T02:25:08;76140.88;;;-147.36;100.00
55113;BME280;41006;50.920;3.456;2023-07-20T02:25:38;76136.84;;;-147.36;100.00
55113;BME280;41006;50.920;3.456;2023-07-20T02:26:09;76132.81;;;-147.36;100.00
55113;BME280;41006;50.920;3.456;2023-07-20T02:26:42;76130.78;;;-147.36;100.00
55113;BME280;41006;50.920;3.456;2023-07-20T02:27:12;76128.75;;;-147.36;100.00
55113;BME280;41006;50.920;3.456;2023-07-20T02:27:45;76124.72;;;-147.36;100.00
55113;BME280;41006;50.920;3.456;2023-07-20T02:28:18;76134.81;;;-147.36;100.00
55113;BME280;41006;50.920;3.456;2023-07-20T02:28:51;76136.84;;;-147.36;100.00
55113;BME280;41006;50.920;3.456;2023-07-20T02:29:26;76136.84;;;-147.36;100.00
55113;BME280;41006;50.920;3.456;2023-07-20T02:30:01;76124.72;;;-147.36;100.00
55113;BME280;41006;50.920;3.456;2023-07-20T02:30:31;76124.72;;;-147.36;100.00
55113;BME280;41006;50.920;3.456;2023-07-20T02:31:01;76128.75;;;-147.36;100.00
55113;BME280;41006;50.920;3.456;2023-07-20T02:31:34;76130.78;;;-147.36;100.00
55113;BME280;41006;50.920;3.456;2023-07-20T02:32:08;76116.66;;;-147.36;100.00
55113;BME280;41006;50.920;3.456;2023-07-20T02:32:42;76104.53;;;-147.36;100.00
55113;BME280;41006;50.920;3.456;2023-07-20T02:33:15;76120.69;;;-147.36;100.00
55113;BME280;41006;50.920;3.456;2023-07-20T02:33:45;76132.81;;;-147.36;100.00
55113;BME280;41006;50.920;3.456;2023-07-20T02:34:18;76132.81;;;-147.36;100.00
55113;BME280;41006;50.920;3.456;2023-07-20T02:34:54;76122.72;;;-147.36;100.00
55113;BME280;41006;50.920;3.456;2023-07-20T02:35:29;76128.75;;;-147.36;100.00
55113;BME280;41006;50.920;3.456;2023-07-20T02:36:02;76128.75;;;-147.36;100.00
55113;BME280;41006;50.920;3.456;2023-07-20T02:36:35;76128.75;;;-147.36;100.00
55113;BME280;41006;50.920;3.456;2023-07-20T02:37:08;76136.84;;;-147.36;100.00
55113;BME280;41006;50.920;3.456;2023-07-20T02:37:40;76146.94;;;-147.36;100.00
55113;BME280;41006;50.920;3.456;2023-07-20T02:38:16;76144.94;;;-147.36;100.00
55113;BME280;41006;50.920;3.456;2023-07-20T02:38:49;76138.88;;;-147.36;100.00
55113;BME280;41006;50.920;3.456;2023-07-20T02:39:22;76144.94;;;-147.36;100.00
55113;BME280;41006;50.920;3.456;2023-07-20T02:39:52;76151.00;;;-147.36;100.00
55113;BME280;41006;50.920;3.456;2023-07-20T02:40:23;76144.94;;;-147.36;100.00
55113;BME280;41006;50.920;3.456;2023-07-20T02:40:53;76142.91;;;-147.36;100.00
55113;BME280;41006;50.920;3.456;2023-07-20T02:41:29;76122.72;;;-147.36;100.00
55113;BME280;41006;50.920;3.456;2023-07-20T02:42:05;76124.72;;;-147.36;100.00
55113;BME280;41006;50.920;3.456;2023-07-20T02:42:38;76120.69;;;-147.36;100.00
55113;BME280;41006;50.920;3.456;2023-07-20T02:43:08;76122.72;;;-147.36;100.00
55113;BME280;41006;50.920;3.456;2023-07-20T02:43:39;76124.72;;;-147.36;100.00
55113;BME280;41006;50.920;3.456;2023-07-20T02:44:09;76124.72;;;-147.36;100.00
55113;BME280;41006;50.920;3.456;2023-07-20T02:44:45;76116.66;;;-147.36;100.00
55113;BME280;41006;50.920;3.456;2023-07-20T02:45:16;76108.56;;;-147.36;100.00
55113;BME280;41006;50.920;3.456;2023-07-20T02:45:50;76104.53;;;-147.36;100.00
55113;BME280;41006;50.920;3.456;2023-07-20T02:46:20;76110.59;;;-147.36;100.00
55113;BME280;41006;50.920;3.456;2023-07-20T02:46:51;76108.56;;;-147.36;100.00
55113;BME280;41006;50.920;3.456;2023-07-20T02:47:23;76108.56;;;-147.36;100.00
55113;BME280;41006;50.920;3.456;2023-07-20T02:47:54;76100.47;;;-147.36;100.00
55113;BME280;41006;50.920;3.456;2023-07-20T02:48:24;76076.25;;;-147.36;100.00
55113;BME280;41006;50.920;3.456;2023-07-20T02:48:54;76082.31;;;-147.36;100.00
55113;BME280;41006;50.920;3.456;2023-07-20T02:49:29;76088.34;;;-147.36;100.00
55113;BME280;41006;50.920;3.456;2023-07-20T02:50:02;76076.25;;;-147.36;100.00
55113;BME280;41006;50.920;3.456;2023-07-20T02:50:33;76080.28;;;-147.36;100.00
55113;BME280;41006;50.920;3.456;2023-07-20T02:51:09;76080.28;;;-147.36;100.00
55113;BME280;41006;50.920;3.456;2023-07-20T02:51:44;76076.25;;;-147.36;100.00
55113;BME280;41006;50.920;3.456;2023-07-20T02:52:18;76080.28;;;-147.36;100.00
55113;BME280;41006;50.920;3.456;2023-07-20T02:52:53;76078.25;;;-147.36;100.00
55113;BME280;41006;50.920;3.456;2023-07-20T02:53:23;76088.34;;;-147.36;100.00
55113;BME280;41006;50.920;3.456;2023-07-20T02:53:56;76088.34;;;-147.36;100.00
55113;BME280;41006;50.920;3.456;2023-07-20T02:54:29;76092.41;;;-147.36;100.00
55113;BME280;41006;50.920;3.456;2023-07-20T02:55:00;76088.34;;;-147.36;100.00
55113;BME280;41006;50.920;3.456;2023-07-20T02:55:34;76096.44;;;-147.36;100.00
55113;BME280;41006;50.920;3.456;2023-07-20T02:56:04;76096.44;;;-147.36;100.00
55113;BME280;41006;50.920;3.456;2023-07-20T02:56:34;76096.44;;;-147.36;100.00